createdAt,value
2022-09-23T09:12:26.883Z,83.50
2022-09-23T09:15:27.358Z,82.30
2022-09-23T09:18:01.185Z,83.10
2022-09-23T09:20:44.769Z,82.10
2022-09-23T09:23:11.562Z,80.00
2022-09-23T09:25:54.457Z,79.00
2022-09-23T09:28:38.879Z,79.30
2022-09-23T09:31:32.505Z,77.60
2022-09-23T09:34:37.284Z,78.30
2022-09-23T09:37:08.948Z,77.80
2022-09-23T09:39:36.745Z,78.20
2022-09-23T09:42:06.009Z,78.00
2022-09-23T09:44:40.328Z,78.30
2022-09-23T09:47:16.076Z,76.70
2022-09-23T09:49:49.398Z,74.70
2022-09-23T09:52:26.090Z,75.10
2022-09-23T09:54:53.054Z,74.50
2022-09-23T09:57:35.166Z,75.00
2022-09-23T10:00:26.328Z,73.40
2022-09-23T10:02:55.606Z,73.70
2022-09-23T10:05:46.660Z,73.70
2022-09-23T10:08:16.549Z,74.10
2022-09-23T10:10:55.193Z,74.30
2022-09-23T10:13:26.354Z,72.80
2022-09-23T10:15:54.867Z,72.70
2022-09-23T10:18:32.367Z,72.30
2022-09-23T10:21:14.234Z,69.70
2022-09-23T10:24:03.052Z,70.70
2022-09-23T10:26:38.825Z,71.70
2022-09-23T10:29:24.221Z,69.80
2022-09-23T10:32:22.558Z,69.00
2022-09-23T10:34:53.972Z,68.10
2022-09-23T10:37:32.539Z,67.90
2022-09-23T10:40:18.784Z,66.40
2022-09-23T10:43:20.511Z,67.00
2022-09-23T10:46:08.132Z,68.20
2022-09-23T10:49:09.885Z,67.30
2022-09-23T10:51:59.806Z,66.40
2022-09-23T10:54:50.507Z,66.60
2022-09-23T10:57:51.033Z,66.00
2022-09-23T11:00:38.661Z,66.30
2022-09-23T11:03:37.008Z,66.40
2022-09-23T11:06:41.306Z,65.90
2022-09-23T11:09:31.921Z,66.10
2022-09-23T11:12:08.265Z,65.10
2022-09-23T11:14:51.537Z,64.40
2022-09-23T11:17:34.649Z,64.40
2022-09-23T11:20:16.889Z,64.30
2022-09-23T11:23:08.047Z,64.10
2022-09-23T11:26:06.974Z,63.70
2022-09-23T11:29:21.277Z,64.30
2022-09-23T11:32:14.178Z,64.70
2022-09-23T11:34:55.105Z,63.40
2022-09-23T11:37:27.778Z,64.80
2022-09-23T11:40:02.595Z,65.10
2022-09-23T11:42:35.141Z,64.30
2022-09-23T11:45:14.612Z,63.30
2022-09-23T11:47:50.018Z,62.70
2022-09-23T11:50:23.479Z,61.10
2022-09-23T11:53:16.060Z,61.00
2022-09-23T11:56:02.895Z,61.30
2022-09-23T11:58:37.864Z,57.70
2022-09-23T12:01:48.299Z,57.70
2022-09-23T12:04:31.231Z,58.10
2022-09-23T12:07:10.950Z,59.00
2022-09-23T12:09:58.231Z,58.10
2022-09-23T12:12:47.688Z,59.60
2022-09-23T12:15:47.777Z,60.10
2022-09-23T12:18:53.855Z,60.70
2022-09-23T12:21:49.631Z,59.40
2022-09-23T12:25:02.177Z,59.40
2022-09-23T12:27:45.991Z,59.60
2022-09-23T12:30:22.736Z,59.60
2022-09-23T12:35:48.937Z,60.70
2022-09-23T12:38:36.773Z,59.50
2022-09-23T12:41:27.785Z,58.30
2022-09-23T12:44:50.641Z,58.10
2022-09-23T12:47:28.136Z,58.80
2022-09-23T12:49:59.182Z,59.10
2022-09-23T12:52:35.531Z,57.70
2022-09-23T12:55:22.246Z,58.10
2022-09-23T12:57:49.193Z,57.10
2022-09-23T13:00:34.402Z,56.90
2022-09-23T13:06:20.268Z,55.60
2022-09-23T13:08:50.496Z,56.10
2022-09-23T13:11:25.030Z,55.70
2022-09-23T13:13:58.817Z,54.60
2022-09-23T13:16:43.332Z,55.00
2022-09-23T13:19:38.604Z,54.30
2022-09-23T13:22:11.574Z,55.90
2022-09-23T13:25:19.478Z,55.50
2022-09-23T13:30:31.185Z,57.00
2022-09-23T13:33:20.045Z,56.80
2022-09-23T13:35:53.349Z,56.30
2022-09-23T13:38:28.070Z,56.30
2022-09-23T13:41:14.533Z,56.70
2022-09-23T13:43:48.176Z,57.70
2022-09-23T13:46:24.744Z,56.80
2022-09-23T13:49:04.802Z,58.00
2022-09-23T13:51:39.355Z,58.00
2022-09-23T13:56:52.086Z,57.50
2022-09-23T13:59:30.156Z,58.30
2022-09-23T14:02:52.861Z,58.50
2022-09-23T14:05:26.410Z,58.70
2022-09-23T14:07:57.278Z,58.50
2022-09-23T14:10:27.792Z,59.70
2022-09-23T14:12:57.385Z,58.30
2022-09-23T14:15:26.576Z,58.30
2022-09-23T14:18:06.461Z,59.00
2022-09-23T14:20:47.712Z,59.60
2022-09-23T14:23:14.864Z,60.40
2022-09-23T14:25:44.568Z,60.70
2022-09-23T14:28:20.426Z,61.80
2022-09-23T14:30:53.098Z,61.60
2022-09-23T14:33:35.948Z,61.50
2022-09-23T14:36:08.915Z,61.40
2022-09-23T14:38:51.019Z,61.70
2022-09-23T14:41:26.264Z,62.90
2022-09-23T14:44:00.159Z,62.90
2022-09-23T14:46:29.662Z,63.20
2022-09-23T14:49:04.822Z,63.80
2022-09-23T14:51:35.849Z,63.50
2022-09-23T14:54:52.967Z,64.10
2022-09-23T14:57:22.682Z,64.10
2022-09-23T15:00:08.882Z,64.40
2022-09-23T15:02:42.370Z,64.80
2022-09-23T15:05:20.779Z,64.70
2022-09-23T15:07:53.368Z,65.00
2022-09-23T15:10:23.887Z,65.20
2022-09-23T15:12:53.081Z,65.30
2022-09-23T15:15:24.262Z,65.60
2022-09-23T15:17:51.301Z,65.80
2022-09-23T15:20:26.627Z,66.30
2022-09-23T15:22:58.194Z,67.20
2022-09-23T15:25:40.181Z,67.60
2022-09-23T15:28:10.083Z,68.30
2022-09-23T15:30:38.257Z,69.00
2022-09-23T15:33:18.820Z,69.70
2022-09-23T15:35:48.550Z,70.10
2022-09-23T15:38:20.492Z,70.60
2022-09-23T15:40:48.751Z,71.40
2022-09-23T15:43:26.184Z,71.40
2022-09-23T15:46:01.134Z,71.90
2022-09-23T15:48:38.832Z,72.20
2022-09-23T15:51:08.105Z,72.40
2022-09-23T15:53:38.422Z,72.70
2022-09-23T15:56:08.643Z,73.10
2022-09-23T15:58:38.760Z,74.50
2022-09-23T16:01:06.392Z,75.50
2022-09-23T16:03:38.282Z,76.80
2022-09-23T16:06:23.778Z,77.60
2022-09-23T16:08:52.356Z,78.40
2022-09-23T16:11:26.473Z,77.50
2022-09-23T16:13:56.178Z,78.20
2022-09-23T16:16:32.107Z,77.60
2022-09-23T16:19:35.732Z,79.10
2022-09-23T16:22:06.874Z,80.20
2022-09-23T16:24:36.487Z,79.10
2022-09-23T16:27:07.881Z,79.60
2022-09-23T16:30:02.939Z,81.90
2022-09-23T16:32:29.994Z,82.00
2022-09-23T16:35:07.368Z,81.80
2022-09-23T16:37:40.166Z,83.40
2022-09-23T16:40:19.028Z,83.90
2022-09-23T16:42:56.050Z,84.70
2022-09-23T16:45:24.368Z,85.20
2022-09-23T16:47:52.016Z,86.10
2022-09-23T16:50:22.599Z,86.50
2022-09-23T16:52:51.738Z,87.10
2022-09-23T16:55:18.442Z,88.00
2022-09-23T16:57:45.117Z,88.00
2022-09-23T17:00:47.942Z,88.70
2022-09-23T17:03:33.519Z,89.20
2022-09-23T17:06:03.397Z,89.00
2022-09-23T17:08:33.205Z,90.50
2022-09-23T17:11:00.844Z,90.40
2022-09-23T17:13:28.646Z,90.90
2022-09-23T17:15:55.752Z,91.40
2022-09-23T17:18:27.135Z,92.10
2022-09-23T17:21:11.717Z,92.20
2022-09-23T17:23:38.695Z,92.10
2022-09-23T17:26:05.993Z,92.30
2022-09-23T17:28:32.647Z,92.70
2022-09-23T17:31:01.963Z,93.30
2022-09-23T17:33:30.337Z,93.50
2022-09-23T17:35:57.274Z,93.70
2022-09-23T17:38:28.693Z,93.90
2022-09-23T17:40:59.036Z,94.00
2022-09-23T17:43:25.986Z,94.00
2022-09-23T17:45:54.470Z,94.10
2022-09-23T17:48:24.640Z,94.30
2022-09-23T17:50:59.037Z,94.50
2022-09-23T17:53:26.258Z,94.90
2022-09-23T17:55:57.125Z,94.80
2022-09-23T17:58:28.438Z,94.70
2022-09-23T18:00:56.101Z,94.60
2022-09-23T18:03:24.589Z,94.90
2022-09-23T18:05:51.994Z,94.90
2022-09-23T18:08:19.070Z,94.90
2022-09-23T18:10:45.979Z,94.90
2022-09-23T18:13:13.130Z,95.20
2022-09-23T18:15:40.378Z,95.30
2022-09-23T18:18:07.213Z,95.50
2022-09-23T18:20:34.077Z,95.70
2022-09-23T18:23:03.327Z,95.80
2022-09-23T18:25:40.904Z,95.60
2022-09-23T18:28:07.691Z,95.30
2022-09-23T18:30:34.655Z,95.40
2022-09-23T18:33:02.374Z,95.40
2022-09-23T18:35:29.458Z,95.60
2022-09-23T18:37:56.161Z,95.70
2022-09-23T18:40:23.018Z,95.40
2022-09-23T18:42:50.244Z,95.70
2022-09-23T18:45:19.342Z,95.80
2022-09-23T18:48:04.642Z,96.20
2022-09-23T18:50:40.497Z,96.30
2022-09-23T18:53:08.239Z,96.00
2022-09-23T18:55:36.166Z,96.20
2022-09-23T18:58:03.072Z,96.10
2022-09-23T19:00:31.054Z,96.40
2022-09-23T19:02:57.765Z,96.10
2022-09-23T19:05:24.408Z,96.20
2022-09-23T19:07:51.479Z,96.10
2022-09-23T19:10:19.581Z,95.80
2022-09-23T19:12:46.700Z,95.90
2022-09-23T19:15:14.750Z,95.70
2022-09-23T19:17:41.481Z,96.00
2022-09-23T19:20:09.458Z,95.80
2022-09-23T19:22:36.122Z,95.90
2022-09-23T19:25:02.859Z,96.00
2022-09-23T19:27:29.637Z,95.80
2022-09-23T19:29:56.847Z,95.70
2022-09-23T19:32:27.053Z,95.70
2022-09-23T19:34:53.757Z,95.90
2022-09-23T19:37:20.977Z,96.10
2022-09-23T19:39:47.859Z,96.00
2022-09-23T19:42:14.712Z,96.40
2022-09-23T19:44:41.472Z,96.50
2022-09-23T19:47:15.324Z,96.30
2022-09-23T19:49:42.949Z,96.20
2022-09-23T19:52:09.664Z,96.50
2022-09-23T19:54:37.189Z,96.00
2022-09-23T19:57:03.961Z,96.20
2022-09-23T19:59:31.017Z,96.10
2022-09-23T20:01:57.885Z,96.40
2022-09-23T20:04:24.987Z,96.30
2022-09-23T20:06:51.727Z,96.20
2022-09-23T20:09:18.434Z,96.30
2022-09-23T20:11:45.495Z,96.10
2022-09-23T20:14:12.872Z,96.10
2022-09-23T20:16:40.319Z,96.50
2022-09-23T20:19:06.944Z,96.50
2022-09-23T20:21:34.436Z,95.80
2022-09-23T20:24:01.625Z,96.10
2022-09-23T20:26:47.135Z,96.00
2022-09-23T20:29:13.890Z,95.80
2022-09-23T20:31:41.071Z,95.70
2022-09-23T20:34:09.150Z,96.20
2022-09-23T20:36:36.235Z,96.00
2022-09-23T20:39:05.931Z,95.90
2022-09-23T20:41:36.789Z,95.80
2022-09-23T20:44:06.262Z,96.10
2022-09-23T20:46:33.253Z,95.60
2022-09-23T20:49:00.192Z,95.70
2022-09-23T20:51:26.814Z,95.60
2022-09-23T20:53:53.384Z,95.60
2022-09-23T20:56:21.427Z,96.30
2022-09-23T20:58:48.612Z,96.20
2022-09-23T21:01:16.081Z,96.20
2022-09-23T21:03:44.893Z,96.00
2022-09-23T21:06:14.182Z,96.10
2022-09-23T21:08:41.590Z,95.80
2022-09-23T21:11:12.405Z,95.70
2022-09-23T21:13:39.295Z,96.20
2022-09-23T21:16:09.745Z,96.20
2022-09-23T21:18:37.307Z,96.10
2022-09-23T21:21:05.386Z,96.20
2022-09-23T21:23:34.504Z,96.30
2022-09-23T21:26:06.013Z,96.70
2022-09-23T21:28:34.977Z,96.10
2022-09-23T21:31:03.331Z,96.70
2022-09-23T21:33:33.112Z,96.50
2022-09-23T21:36:04.153Z,96.30
2022-09-23T21:38:33.533Z,96.60
2022-09-23T21:41:01.838Z,96.60
2022-09-23T21:43:33.170Z,96.60
2022-09-23T21:46:02.365Z,96.50
2022-09-23T21:48:30.345Z,96.80
2022-09-23T21:51:05.656Z,96.70
2022-09-23T21:53:33.797Z,96.60
2022-09-23T21:56:06.230Z,96.90
2022-09-23T21:58:34.410Z,97.00
2022-09-23T22:01:06.196Z,96.90
2022-09-23T22:03:32.981Z,96.90
2022-09-23T22:06:05.794Z,96.60
2022-09-23T22:08:36.832Z,97.10
2022-09-23T22:11:33.499Z,97.00
2022-09-23T22:14:02.379Z,97.00
2022-09-23T22:16:29.782Z,97.40
2022-09-23T22:18:58.612Z,97.00
2022-09-23T22:21:27.706Z,97.40
2022-09-23T22:24:02.689Z,97.60
2022-09-23T22:26:32.590Z,97.90
2022-09-23T22:29:38.151Z,98.00
2022-09-23T22:32:28.905Z,97.80
2022-09-23T22:34:56.137Z,98.20
2022-09-23T22:37:30.220Z,98.00
2022-09-23T22:39:56.935Z,98.40
2022-09-23T22:42:23.722Z,98.40
2022-09-23T22:44:51.390Z,98.70
2022-09-23T22:47:19.462Z,98.70
2022-09-23T22:49:46.745Z,98.80
2022-09-23T22:52:15.920Z,98.90
2022-09-23T22:54:43.233Z,98.90
2022-09-23T22:57:10.098Z,99.60
